createdAt,value
2023-04-27T00:01:22.241Z,2.13
2023-04-27T00:03:54.944Z,2.10
2023-04-27T00:06:26.612Z,2.16
2023-04-27T00:08:56.386Z,2.08
2023-04-27T00:11:26.081Z,2.03
2023-04-27T00:13:55.850Z,1.93
2023-04-27T00:16:25.445Z,1.99
2023-04-27T00:18:57.598Z,2.07
2023-04-27T00:21:27.113Z,2.16
2023-04-27T00:23:57.608Z,2.07
2023-04-27T00:26:27.178Z,2.07
2023-04-27T00:28:56.708Z,2.00
2023-04-27T00:31:26.317Z,1.81
2023-04-27T00:33:58.466Z,1.93
2023-04-27T00:36:28.234Z,1.91
2023-04-27T00:38:57.744Z,1.89
2023-04-27T00:41:27.212Z,1.84
2023-04-27T00:43:56.895Z,2.01
2023-04-27T00:46:28.087Z,1.96
2023-04-27T00:49:00.328Z,1.77
2023-04-27T00:51:31.491Z,1.77
2023-04-27T00:54:01.800Z,1.60
2023-04-27T00:56:31.634Z,1.47
2023-04-27T00:59:01.290Z,1.41
2023-04-27T01:01:32.334Z,1.39
2023-04-27T01:04:04.767Z,1.34
2023-04-27T01:06:34.684Z,1.43
2023-04-27T01:09:05.438Z,1.48
2023-04-27T01:11:35.478Z,1.65
2023-04-27T01:14:07.660Z,1.68
2023-04-27T01:16:37.548Z,1.64
2023-04-27T01:19:10.885Z,1.53
2023-04-27T01:21:41.007Z,1.60
2023-04-27T01:24:13.797Z,1.51
2023-04-27T01:26:43.411Z,1.41
2023-04-27T01:29:13.084Z,1.43
2023-04-27T01:31:42.839Z,1.29
2023-04-27T01:34:12.532Z,1.26
2023-04-27T01:36:42.050Z,1.34
2023-04-27T01:39:14.430Z,1.42
2023-04-27T01:41:44.176Z,1.51
2023-04-27T01:44:14.207Z,1.57
2023-04-27T01:46:43.792Z,1.76
2023-04-27T01:49:13.561Z,1.71
2023-04-27T01:51:43.208Z,1.86
2023-04-27T01:54:15.360Z,1.94
2023-04-27T01:56:45.632Z,1.87
2023-04-27T01:59:15.492Z,1.71
2023-04-27T02:01:45.208Z,1.66
2023-04-27T02:04:15.803Z,1.52
2023-04-27T02:06:45.583Z,1.41
2023-04-27T02:09:18.002Z,1.42
2023-04-27T02:11:47.784Z,1.29
2023-04-27T02:14:17.349Z,1.33
2023-04-27T02:16:46.806Z,1.56
2023-04-27T02:19:16.710Z,1.50
2023-04-27T02:21:46.643Z,1.60
2023-04-27T02:24:18.760Z,1.64
2023-04-27T02:26:48.543Z,1.61
2023-04-27T02:29:18.701Z,1.54
2023-04-27T02:31:48.683Z,1.54
2023-04-27T02:34:18.558Z,1.45
2023-04-27T02:36:48.053Z,1.40
2023-04-27T02:39:20.185Z,1.39
2023-04-27T02:41:49.642Z,1.28
2023-04-27T02:44:19.156Z,1.24
2023-04-27T02:46:48.918Z,1.26
2023-04-27T02:49:18.834Z,1.27
2023-04-27T02:51:48.316Z,1.23
2023-04-27T02:54:20.414Z,1.26
2023-04-27T02:56:49.886Z,1.35
2023-04-27T02:59:19.601Z,1.34
2023-04-27T03:01:49.215Z,1.37
2023-04-27T03:04:19.158Z,1.32
2023-04-27T03:06:48.761Z,1.33
2023-04-27T03:09:21.341Z,1.31
2023-04-27T03:11:50.878Z,1.38
2023-04-27T03:14:20.770Z,1.46
2023-04-27T03:16:50.440Z,1.39
2023-04-27T03:19:19.984Z,1.48
2023-04-27T03:21:49.526Z,1.36
2023-04-27T03:24:21.960Z,1.46
2023-04-27T03:26:51.469Z,1.55
2023-04-27T03:29:21.353Z,1.56
2023-04-27T03:31:51.047Z,1.69
2023-04-27T03:34:21.905Z,1.93
2023-04-27T03:36:51.431Z,1.79
2023-04-27T03:39:23.538Z,1.71
2023-04-27T03:41:53.003Z,1.62
2023-04-27T03:44:24.601Z,1.65
2023-04-27T03:46:54.423Z,1.54
2023-04-27T03:49:23.936Z,1.48
2023-04-27T03:51:53.428Z,1.56
2023-04-27T03:54:25.819Z,1.63
2023-04-27T03:56:56.150Z,1.53
2023-04-27T03:59:25.719Z,1.27
2023-04-27T04:01:55.284Z,1.13
2023-04-27T04:04:24.972Z,1.04
2023-04-27T04:06:54.681Z,0.99
2023-04-27T04:09:27.121Z,1.00
2023-04-27T04:11:56.658Z,1.09
2023-04-27T04:14:26.203Z,1.13
2023-04-27T04:16:56.001Z,1.03
2023-04-27T04:19:25.945Z,1.05
2023-04-27T04:21:57.200Z,1.15
2023-04-27T04:24:29.428Z,1.38
2023-04-27T04:26:59.280Z,1.40
2023-04-27T04:29:30.035Z,1.53
2023-04-27T04:31:59.571Z,1.61
2023-04-27T04:34:29.370Z,1.65
2023-04-27T04:36:58.986Z,1.65
2023-04-27T04:39:33.609Z,1.62
2023-04-27T04:42:04.168Z,1.57
2023-04-27T04:44:34.153Z,1.52
2023-04-27T04:47:03.696Z,1.57
2023-04-27T04:49:33.307Z,1.58
2023-04-27T04:52:04.302Z,1.56
2023-04-27T04:54:36.745Z,1.61
2023-04-27T04:57:07.822Z,1.59
2023-04-27T04:59:37.398Z,1.57
2023-04-27T05:02:06.909Z,1.69
2023-04-27T05:04:36.522Z,1.67
2023-04-27T05:07:06.768Z,1.65
2023-04-27T05:09:39.122Z,1.69
2023-04-27T05:12:09.389Z,1.75
2023-04-27T05:14:38.968Z,1.85
2023-04-27T05:17:08.466Z,1.77
2023-04-27T05:19:40.242Z,1.85
2023-04-27T05:22:09.701Z,1.82
2023-04-27T05:24:41.911Z,1.85
2023-04-27T05:27:11.476Z,1.88
2023-04-27T05:29:41.165Z,2.00
2023-04-27T05:32:10.808Z,2.06
2023-04-27T05:34:41.251Z,2.13
2023-04-27T05:37:11.716Z,2.32
2023-04-27T05:39:44.907Z,2.30
2023-04-27T05:42:14.385Z,2.40
2023-04-27T05:44:44.018Z,2.33
2023-04-27T05:47:13.526Z,2.43
2023-04-27T05:49:43.228Z,2.40
2023-04-27T05:52:12.861Z,2.56
2023-04-27T05:54:49.380Z,2.56
2023-04-27T05:57:19.624Z,2.57
2023-04-27T05:59:49.141Z,2.69
2023-04-27T06:02:18.872Z,2.80
2023-04-27T06:04:48.644Z,2.96
2023-04-27T06:07:18.761Z,2.97
2023-04-27T06:09:50.843Z,3.07
2023-04-27T06:12:20.490Z,3.06
2023-04-27T06:14:50.028Z,3.13
2023-04-27T06:17:19.529Z,3.18
2023-04-27T06:19:49.034Z,3.27
2023-04-27T06:22:18.545Z,3.33
2023-04-27T06:24:50.666Z,3.52
2023-04-27T06:27:20.163Z,3.60
2023-04-27T06:29:49.734Z,3.55
2023-04-27T06:32:19.266Z,3.67
2023-04-27T06:34:48.757Z,3.70
2023-04-27T06:37:18.494Z,3.92
2023-04-27T06:39:53.296Z,4.10
2023-04-27T06:42:22.763Z,4.28
2023-04-27T06:44:53.028Z,4.32
2023-04-27T06:47:22.485Z,4.38
2023-04-27T06:49:52.081Z,4.34
2023-04-27T06:52:22.138Z,4.32
2023-04-27T06:54:54.195Z,4.43
2023-04-27T06:57:23.686Z,4.47
2023-04-27T06:59:54.150Z,4.55
2023-04-27T07:02:25.435Z,4.58
2023-04-27T07:04:55.172Z,4.81
2023-04-27T07:07:24.658Z,4.83
2023-04-27T07:09:56.937Z,4.97
2023-04-27T07:12:26.424Z,5.05
2023-04-27T07:14:56.343Z,5.07
2023-04-27T07:17:25.947Z,5.36
2023-04-27T07:19:55.489Z,5.34
2023-04-27T07:22:24.992Z,6.42
2023-04-27T07:24:57.076Z,6.19
2023-04-27T07:27:26.739Z,5.83
2023-04-27T07:29:56.843Z,6.05
2023-04-27T07:32:26.391Z,6.18
2023-04-27T07:34:58.976Z,6.12
2023-04-27T07:37:28.938Z,5.96
2023-04-27T07:40:02.578Z,5.74
2023-04-27T07:42:32.334Z,5.76
2023-04-27T07:45:01.839Z,5.85
2023-04-27T07:47:34.516Z,6.01
2023-04-27T07:50:06.332Z,6.02
2023-04-27T07:52:36.141Z,6.06
2023-04-27T07:55:10.048Z,6.23
2023-04-27T07:57:39.579Z,6.29
2023-04-27T08:00:11.728Z,6.38
2023-04-27T08:02:41.674Z,6.38
2023-04-27T08:05:12.565Z,6.22
2023-04-27T08:07:44.859Z,6.24
2023-04-27T08:10:18.029Z,6.07
2023-04-27T08:12:47.599Z,6.46
2023-04-27T08:15:17.155Z,6.48
2023-04-27T08:17:47.462Z,6.40
2023-04-27T08:20:16.968Z,6.22
2023-04-27T08:22:47.070Z,6.07
2023-04-27T08:25:19.151Z,5.97
2023-04-27T08:27:48.954Z,5.85
2023-04-27T08:30:19.350Z,5.67
2023-04-27T08:32:48.921Z,5.89
2023-04-27T08:35:18.457Z,6.13
2023-04-27T08:37:47.992Z,6.18
2023-04-27T08:40:20.610Z,6.24
2023-04-27T08:42:57.741Z,6.26
2023-04-27T08:45:27.673Z,6.31
2023-04-27T08:47:57.316Z,6.75
2023-04-27T08:50:27.385Z,7.20
2023-04-27T08:52:57.039Z,7.57
2023-04-27T08:55:29.519Z,7.51
2023-04-27T08:58:01.522Z,7.35
2023-04-27T09:00:41.686Z,7.25
2023-04-27T09:03:12.097Z,6.99
2023-04-27T09:06:00.694Z,6.80
2023-04-27T09:08:44.520Z,6.74
2023-04-27T09:11:16.962Z,6.75
2023-04-27T09:13:47.816Z,6.80
2023-04-27T09:16:17.660Z,6.77
2023-04-27T09:18:47.168Z,6.80
2023-04-27T09:21:25.224Z,6.78
2023-04-27T09:23:55.415Z,7.03
2023-04-27T09:26:29.271Z,7.41
2023-04-27T09:28:59.577Z,7.79
2023-04-27T09:31:34.502Z,8.00
2023-04-27T09:34:04.493Z,7.91
2023-04-27T09:36:35.117Z,7.48
2023-04-27T09:39:06.182Z,7.43
2023-04-27T09:41:38.350Z,7.25
2023-04-27T09:44:08.570Z,7.37
2023-04-27T09:46:38.929Z,7.36
2023-04-27T09:49:08.528Z,7.10
2023-04-27T09:51:38.118Z,7.05
2023-04-27T09:54:07.885Z,7.14
2023-04-27T09:56:54.550Z,7.35
2023-04-27T09:59:37.443Z,7.63
2023-04-27T10:02:23.515Z,7.76
2023-04-27T10:05:12.148Z,7.63
2023-04-27T10:07:43.011Z,7.56
2023-04-27T10:10:20.581Z,7.62
2023-04-27T10:13:03.809Z,7.55
2023-04-27T10:15:33.298Z,7.69
2023-04-27T10:18:08.802Z,7.82
2023-04-27T10:20:40.717Z,8.04
2023-04-27T10:23:10.198Z,8.24
2023-04-27T10:25:44.024Z,8.19
2023-04-27T10:28:21.458Z,8.17
2023-04-27T10:30:52.102Z,8.36
2023-04-27T10:33:22.928Z,8.40
2023-04-27T10:36:00.489Z,8.27
2023-04-27T10:38:32.869Z,8.44
2023-04-27T10:41:05.604Z,8.27
2023-04-27T10:43:39.105Z,8.17
2023-04-27T10:46:12.510Z,8.04
2023-04-27T10:48:43.657Z,7.92
2023-04-27T10:51:13.695Z,7.77
2023-04-27T10:53:43.146Z,7.63
2023-04-27T10:56:13.181Z,8.46
2023-04-27T10:58:49.352Z,8.24
2023-04-27T11:01:27.511Z,7.58
2023-04-27T11:04:00.488Z,7.63
2023-04-27T11:06:32.280Z,7.63
2023-04-27T11:09:02.360Z,8.01
2023-04-27T11:11:32.132Z,8.34
2023-04-27T11:14:05.139Z,8.34
2023-04-27T11:16:35.150Z,8.41
2023-04-27T11:19:07.965Z,8.51
2023-04-27T11:21:37.430Z,8.72
2023-04-27T11:24:08.523Z,8.64
2023-04-27T11:26:38.060Z,8.65
2023-04-27T11:29:14.029Z,8.87
2023-04-27T11:31:47.726Z,8.77
2023-04-27T11:34:22.786Z,8.98
2023-04-27T11:37:14.696Z,8.75
2023-04-27T11:39:48.810Z,8.46
2023-04-27T11:42:20.763Z,8.37
2023-04-27T11:44:58.617Z,8.46
2023-04-27T11:47:30.324Z,8.50
2023-04-27T11:50:00.778Z,8.69
2023-04-27T11:52:31.971Z,8.47
2023-04-27T11:55:03.413Z,8.37
2023-04-27T11:57:34.101Z,8.51
2023-04-27T12:00:10.906Z,8.40
2023-04-27T12:02:41.242Z,8.33
2023-04-27T12:05:13.485Z,8.63
2023-04-27T12:07:43.598Z,8.81
2023-04-27T12:10:13.972Z,8.72
2023-04-27T12:12:43.507Z,8.79
2023-04-27T12:15:16.362Z,8.57
2023-04-27T12:17:46.183Z,8.50
2023-04-27T12:20:16.063Z,8.53
2023-04-27T12:22:45.564Z,8.50
2023-04-27T12:25:15.170Z,8.59
2023-04-27T12:27:47.537Z,8.56
2023-04-27T12:30:20.213Z,8.55
2023-04-27T12:32:49.889Z,8.57
2023-04-27T12:35:19.559Z,8.67
2023-04-27T12:37:50.189Z,8.45
2023-04-27T12:40:19.914Z,8.26
2023-04-27T12:42:49.378Z,8.28
2023-04-27T12:45:21.772Z,8.18
2023-04-27T12:48:02.556Z,8.21
2023-04-27T12:50:34.704Z,8.26
2023-04-27T12:53:04.213Z,8.42
2023-04-27T12:55:34.607Z,8.37
2023-04-27T12:58:06.724Z,8.33
2023-04-27T13:00:38.782Z,8.29
2023-04-27T13:03:09.049Z,8.15
2023-04-27T13:05:38.951Z,8.16
2023-04-27T13:08:08.728Z,8.68
2023-04-27T13:10:38.289Z,8.63
2023-04-27T13:13:07.967Z,8.53
2023-04-27T13:15:40.165Z,8.17
2023-04-27T13:18:10.531Z,8.63
2023-04-27T13:20:40.067Z,8.62
2023-04-27T13:23:10.200Z,8.54
2023-04-27T13:25:39.729Z,8.50
2023-04-27T13:28:09.204Z,8.42
2023-04-27T13:30:41.290Z,8.06
2023-04-27T13:33:21.894Z,8.06
2023-04-27T13:35:53.300Z,8.06
2023-04-27T13:38:23.133Z,8.11
2023-04-27T13:40:52.717Z,8.07
2023-04-27T13:43:22.352Z,7.92
2023-04-27T13:45:56.289Z,7.97
2023-04-27T13:48:27.345Z,8.05
2023-04-27T13:50:57.196Z,8.24
2023-04-27T13:53:27.982Z,8.31
2023-04-27T13:55:58.363Z,8.60
2023-04-27T13:58:31.401Z,8.54
2023-04-27T14:01:03.627Z,8.84
2023-04-27T14:03:33.999Z,9.01
2023-04-27T14:06:04.022Z,9.25
2023-04-27T14:08:33.535Z,9.52
2023-04-27T14:11:03.088Z,9.38
2023-04-27T14:13:32.712Z,9.10
2023-04-27T14:16:04.813Z,9.09
2023-04-27T14:18:34.385Z,9.29
2023-04-27T14:21:03.854Z,9.26
2023-04-27T14:23:33.380Z,9.26
2023-04-27T14:26:02.933Z,9.38
2023-04-27T14:28:32.492Z,9.24
2023-04-27T14:31:04.624Z,9.07
2023-04-27T14:33:34.383Z,8.99
2023-04-27T14:36:03.901Z,9.07
2023-04-27T14:38:33.380Z,8.88
2023-04-27T14:41:05.502Z,8.83
2023-04-27T14:43:34.992Z,8.87
2023-04-27T14:46:19.784Z,8.62
2023-04-27T14:48:51.519Z,8.65
2023-04-27T14:51:21.593Z,8.68
2023-04-27T14:53:51.113Z,8.75
2023-04-27T14:56:20.909Z,8.88
2023-04-27T14:58:50.407Z,8.64
2023-04-27T15:01:22.544Z,8.53
2023-04-27T15:03:54.369Z,8.43
2023-04-27T15:06:26.216Z,8.45
2023-04-27T15:08:55.813Z,8.54
2023-04-27T15:11:25.387Z,8.51
2023-04-27T15:13:54.842Z,8.48
2023-04-27T15:16:28.248Z,8.47
2023-04-27T15:18:57.829Z,8.58
2023-04-27T15:21:27.631Z,8.45
2023-04-27T15:23:57.154Z,8.49
2023-04-27T15:26:28.132Z,8.59
2023-04-27T15:28:58.316Z,8.58
2023-04-27T15:31:30.421Z,8.64
2023-04-27T15:34:00.242Z,8.84
2023-04-27T15:36:29.788Z,8.84
2023-04-27T15:38:59.435Z,8.70
2023-04-27T15:41:28.966Z,8.63
2023-04-27T15:43:58.431Z,8.70
2023-04-27T15:46:30.589Z,8.93
2023-04-27T15:49:00.150Z,8.89
2023-04-27T15:51:29.603Z,8.86
2023-04-27T15:53:59.123Z,8.85
2023-04-27T15:56:30.635Z,8.79
2023-04-27T15:59:00.550Z,9.03
2023-04-27T16:01:32.907Z,8.88
2023-04-27T16:04:02.637Z,8.60
2023-04-27T16:06:36.600Z,8.44
2023-04-27T16:09:09.813Z,8.54
2023-04-27T16:11:40.765Z,8.60
2023-04-27T16:14:10.474Z,8.71
2023-04-27T16:16:42.578Z,8.56
2023-04-27T16:19:12.672Z,9.11
2023-04-27T16:21:42.581Z,8.97
2023-04-27T16:24:12.607Z,9.23
2023-04-27T16:26:42.114Z,9.27
2023-04-27T16:29:11.601Z,9.18
2023-04-27T16:31:44.911Z,9.18
2023-04-27T16:34:14.507Z,8.90
2023-04-27T16:36:44.203Z,9.01
2023-04-27T16:39:14.168Z,9.23
2023-04-27T16:41:43.883Z,8.96
2023-04-27T16:44:13.894Z,9.03
2023-04-27T16:46:46.024Z,9.00
2023-04-27T16:49:15.729Z,8.98
2023-04-27T16:51:45.521Z,8.98
2023-04-27T16:54:16.608Z,8.91
2023-04-27T16:56:46.645Z,9.14
2023-04-27T16:59:20.473Z,9.54
2023-04-27T17:01:52.692Z,9.50
2023-04-27T17:04:22.686Z,9.44
2023-04-27T17:06:52.628Z,8.96
2023-04-27T17:09:22.248Z,8.81
2023-04-27T17:11:51.757Z,8.69
2023-04-27T17:14:23.555Z,8.64
2023-04-27T17:16:56.127Z,8.65
2023-04-27T17:19:27.315Z,8.46
2023-04-27T17:21:57.109Z,8.29
2023-04-27T17:24:26.692Z,8.21
2023-04-27T17:26:56.196Z,7.99
2023-04-27T17:29:25.854Z,8.08
2023-04-27T17:31:57.964Z,8.10
2023-04-27T17:34:27.430Z,8.06
2023-04-27T17:36:56.963Z,8.05
2023-04-27T17:39:26.432Z,8.13
2023-04-27T17:41:57.266Z,8.11
2023-04-27T17:44:26.813Z,8.12
2023-04-27T17:46:59.162Z,7.93
2023-04-27T17:49:28.666Z,7.90
2023-04-27T17:51:58.213Z,7.74
2023-04-27T17:54:30.082Z,7.68
2023-04-27T17:57:00.226Z,7.67
2023-04-27T17:59:29.799Z,7.73
2023-04-27T18:02:01.926Z,7.65
2023-04-27T18:04:31.735Z,7.62
2023-04-27T18:07:01.434Z,7.63
2023-04-27T18:09:33.097Z,7.63
2023-04-27T18:12:03.161Z,7.55
2023-04-27T18:14:32.743Z,7.57
2023-04-27T18:17:04.797Z,7.63
2023-04-27T18:19:34.846Z,7.67
2023-04-27T18:22:04.334Z,7.66
2023-04-27T18:24:33.841Z,7.69
2023-04-27T18:27:04.249Z,7.63
2023-04-27T18:29:34.730Z,7.57
2023-04-27T18:32:08.097Z,7.67
2023-04-27T18:34:37.733Z,7.61
2023-04-27T18:37:07.247Z,7.48
2023-04-27T18:39:36.794Z,7.43
2023-04-27T18:42:06.528Z,7.36
2023-04-27T18:44:36.575Z,7.18
2023-04-27T18:47:08.934Z,7.15
2023-04-27T18:49:38.454Z,7.27
2023-04-27T18:52:11.527Z,7.12
2023-04-27T18:54:41.412Z,7.15
2023-04-27T18:57:11.054Z,7.06
2023-04-27T18:59:40.995Z,7.03
2023-04-27T19:02:13.070Z,6.96
2023-04-27T19:04:45.570Z,6.91
2023-04-27T19:07:26.664Z,6.82
2023-04-27T19:09:56.848Z,6.66
2023-04-27T19:12:26.643Z,6.59
2023-04-27T19:14:56.213Z,6.58
2023-04-27T19:17:28.512Z,6.57
2023-04-27T19:19:58.672Z,6.53
2023-04-27T19:22:29.454Z,6.52
2023-04-27T19:24:58.973Z,6.42
2023-04-27T19:27:28.533Z,6.44
2023-04-27T19:29:59.320Z,6.43
2023-04-27T19:32:31.481Z,6.44
2023-04-27T19:35:01.761Z,6.32
2023-04-27T19:37:31.557Z,6.22
2023-04-27T19:40:01.045Z,6.17
2023-04-27T19:42:30.974Z,6.11
2023-04-27T19:45:01.028Z,6.12
2023-04-27T19:47:33.419Z,6.05
2023-04-27T19:50:02.961Z,5.94
2023-04-27T19:52:32.951Z,5.94
2023-04-27T19:55:02.731Z,5.89
2023-04-27T19:57:32.358Z,5.77
2023-04-27T20:00:01.940Z,5.73
2023-04-27T20:02:34.414Z,5.75
2023-04-27T20:05:04.361Z,5.63
2023-04-27T20:07:34.094Z,5.75
2023-04-27T20:10:04.636Z,5.76
2023-04-27T20:15:08.171Z,5.62
2023-04-27T20:17:43.016Z,5.57
2023-04-27T20:20:13.282Z,5.58
2023-04-27T20:22:42.935Z,5.56
2023-04-27T20:25:14.840Z,5.42
2023-04-27T20:27:44.493Z,5.38
2023-04-27T20:30:14.964Z,5.45
2023-04-27T20:32:47.277Z,5.37
2023-04-27T20:35:16.925Z,5.48
2023-04-27T20:37:47.261Z,5.33
2023-04-27T20:40:18.322Z,5.34
2023-04-27T20:42:49.601Z,5.24
2023-04-27T20:45:19.653Z,5.19
2023-04-27T20:47:52.270Z,5.16
2023-04-27T20:50:22.136Z,5.19
2023-04-27T20:52:51.722Z,5.16
2023-04-27T20:55:21.617Z,5.15
2023-04-27T20:57:51.144Z,5.13
2023-04-27T21:00:23.686Z,5.14
2023-04-27T21:02:55.956Z,5.18
2023-04-27T21:05:25.943Z,5.22
2023-04-27T21:07:55.426Z,5.23
2023-04-27T21:10:24.922Z,5.27
2023-04-27T21:12:54.442Z,5.24
2023-04-27T21:15:23.980Z,5.21
2023-04-27T21:17:56.181Z,5.06
2023-04-27T21:20:25.767Z,5.03
2023-04-27T21:22:56.341Z,4.97
2023-04-27T21:25:25.837Z,5.09
2023-04-27T21:27:55.336Z,5.16
2023-04-27T21:30:24.913Z,5.24
2023-04-27T21:32:57.041Z,5.23
2023-04-27T21:35:26.674Z,5.18
2023-04-27T21:37:56.313Z,5.12
2023-04-27T21:40:25.902Z,5.11
2023-04-27T21:42:56.113Z,5.00
2023-04-27T21:45:25.798Z,4.95
2023-04-27T21:47:57.958Z,4.93
2023-04-27T21:50:27.508Z,4.95
2023-04-27T21:52:57.033Z,5.07
2023-04-27T21:55:26.487Z,4.97
2023-04-27T21:57:55.962Z,4.85
2023-04-27T22:00:25.939Z,4.86
2023-04-27T22:02:58.378Z,4.88
2023-04-27T22:05:29.396Z,4.94
2023-04-27T22:07:59.853Z,4.93
2023-04-27T22:10:29.308Z,4.88
2023-04-27T22:13:02.553Z,4.84
2023-04-27T22:15:38.135Z,4.78
2023-04-27T22:18:10.380Z,4.74
2023-04-27T22:20:40.461Z,4.77
2023-04-27T22:23:10.226Z,4.82
2023-04-27T22:25:42.824Z,4.78
2023-04-27T22:28:12.479Z,4.76
2023-04-27T22:30:43.118Z,4.72
2023-04-27T22:33:15.303Z,4.68
2023-04-27T22:35:44.835Z,4.63
2023-04-27T22:38:14.426Z,4.57
2023-04-27T22:40:43.946Z,4.52
2023-04-27T22:43:13.448Z,4.45
2023-04-27T22:45:42.975Z,4.41
2023-04-27T22:48:17.094Z,4.37
2023-04-27T22:50:46.579Z,4.41
2023-04-27T22:53:16.253Z,4.33
2023-04-27T22:55:45.724Z,4.33
2023-04-27T22:58:15.177Z,4.32
2023-04-27T23:00:44.708Z,4.35
2023-04-27T23:03:16.932Z,4.37
2023-04-27T23:05:46.756Z,4.42
2023-04-27T23:08:17.061Z,4.41
2023-04-27T23:10:46.881Z,4.43
2023-04-27T23:13:16.444Z,4.39
2023-04-27T23:15:45.951Z,4.42
2023-04-27T23:18:18.180Z,4.44
2023-04-27T23:20:47.718Z,4.46
2023-04-27T23:23:17.202Z,4.41
2023-04-27T23:25:46.712Z,4.40
2023-04-27T23:28:16.246Z,4.39
2023-04-27T23:30:45.847Z,4.43
2023-04-27T23:33:17.938Z,4.45
2023-04-27T23:35:47.417Z,4.45
2023-04-27T23:38:17.488Z,4.48
2023-04-27T23:40:47.118Z,4.49
2023-04-27T23:43:16.810Z,4.54
2023-04-27T23:45:51.786Z,4.59
2023-04-27T23:48:23.891Z,4.65
2023-04-27T23:51:01.694Z,4.79
2023-04-27T23:53:31.621Z,4.74
2023-04-27T23:56:01.092Z,4.64
2023-04-27T23:58:31.087Z,4.78
